Twizzle — 2DKS5 — position and weather

sailwx.info

Track history (hours):
 
Tides and Currents Weather Stations Pressure Air Temp Water Temp Dewpoint Dewpoint Depression Visibility Wind Speed Wind Dir Waves Ship Positions

Twizzle

Last reported at 2016-Aug-26 09:31 UTC. Time now 2016-Aug-26 10:18 UTC.
Position N 44°18' E 009°13'.

Length 58 m; draft 3.8 m.

Type: Sailing vessel. MMSI: 235079813.

Date/timePositionNaut miles runAvg speedWind from/ knotsBaromVisibWave heightAir tempDewpointWater temp
2016-Aug-26 09:31N 44°18' E 009°13'0 0.0
2016-Aug-26 08:19N 44°18' E 009°13'0 0.1
2016-Aug-26 07:31N 44°18' E 009°13'0 0.0
2016-Aug-26 06:31N 44°18' E 009°13'0 0.0
2016-Aug-26 04:25N 44°18' E 009°13'0 0.0
2016-Aug-26 03:31N 44°18' E 009°13'0 0.0
2016-Aug-26 02:19N 44°18' E 009°13'0 0.1
2016-Aug-26 01:31N 44°18' E 009°13'0 0.0
2016-Aug-26 00:31N 44°18' E 009°13'0 0.0
2016-Aug-25 23:31N 44°18' E 009°13'0 0.0
2016-Aug-25 22:31N 44°18' E 009°13'0 0.0
2016-Aug-25 21:31N 44°18' E 009°13'0 0.0
2016-Aug-25 20:31N 44°18' E 009°13'0 0.0
2016-Aug-25 19:28N 44°18' E 009°13'0 0.0
2016-Aug-25 18:31N 44°18' E 009°13'0 0.0
2016-Aug-25 17:31N 44°18' E 009°13'0 0.0
2016-Aug-25 16:31N 44°18' E 009°13'4 3.7
2016-Aug-25 15:34N 44°18' E 009°08'1111.0
2016-Aug-25 14:33N 44°21' E 008°53'5 5.2
2016-Aug-25 13:33N 44°25' E 008°50'0 0.2
2016-Aug-25 12:31N 44°25' E 008°50'0 0.0
2016-Aug-25 11:28N 44°25' E 008°50'0 0.0
2016-Aug-25 10:28N 44°25' E 008°50'0 0.0
2016-Aug-25 09:31N 44°25' E 008°50'0 0.0
2016-Aug-25 08:31N 44°25' E 008°50'0 0.0
2016-Aug-25 07:31N 44°25' E 008°50'0 0.0
2016-Aug-25 06:31N 44°25' E 008°50'0 0.0
2016-Aug-25 04:31N 44°25' E 008°50'0 0.0
2016-Aug-25 03:31N 44°25' E 008°50'0 0.0
2016-Aug-25 02:31N 44°25' E 008°50'0 0.0
2016-Aug-25 01:31N 44°25' E 008°50'0 0.0
2016-Aug-25 00:31N 44°25' E 008°50'0 0.0
2016-Aug-24 23:31N 44°25' E 008°50'0 0.0
2016-Aug-24 22:31N 44°25' E 008°50'0 0.0
2016-Aug-24 21:31N 44°25' E 008°50'0 0.0
2016-Aug-24 20:28N 44°25' E 008°50'0 0.0
2016-Aug-24 19:31N 44°25' E 008°50'0 0.0
2016-Aug-24 18:31N 44°25' E 008°50'0 0.0
2016-Aug-24 17:28N 44°25' E 008°50'0 0.0
2016-Aug-24 16:31N 44°25' E 008°50'0 0.0
2016-Aug-24 15:31N 44°25' E 008°50'0 0.0
2016-Aug-24 14:31N 44°25' E 008°50'0 0.0
2016-Aug-24 13:28N 44°25' E 008°50'0 0.0
2016-Aug-24 12:31N 44°25' E 008°50'0 0.0
2016-Aug-24 11:31N 44°25' E 008°50'0 0.0
2016-Aug-24 10:31N 44°25' E 008°50'0 0.0
2016-Aug-24 09:31N 44°25' E 008°50'0 0.1
2016-Aug-24 08:31N 44°25' E 008°50'0 0.0
2016-Aug-24 07:33N 44°25' E 008°50'3 2.8
2016-Aug-24 06:33N 44°23' E 008°47'14 7.0
2016-Aug-24 04:33N 44°12' E 008°35'8 7.5
2016-Aug-24 03:33N 44°07' E 008°28'8 7.5
2016-Aug-24 02:33N 44°01' E 008°20'8 8.4
2016-Aug-24 01:33N 43°55' E 008°13'8 7.9
2016-Aug-24 00:33N 43°50' E 008°05'8 7.9
2016-Aug-23 23:33N 43°47' E 007°55'8 7.7
2016-Aug-23 22:33N 43°43' E 007°45'8 7.7
2016-Aug-23 21:28N 43°40' E 007°35'7 8.2
2016-Aug-23 20:33N 43°37' E 007°25'8 8.0
2016-Aug-23 19:33N 43°33' E 007°15'8 8.1
2016-Aug-23 18:33N 43°30' E 007°05'4 3.8
2016-Aug-23 17:28N 43°33' E 007°01'0 0.0
2016-Aug-23 16:31N 43°33' E 007°01'0 0.0
2016-Aug-23 15:31N 43°33' E 007°01'0 0.0
2016-Aug-23 06:07N 43°33' E 007°01'0 0.0
2016-Aug-23 05:22N 43°33' E 007°01'0 0.0
2016-Aug-23 03:28N 43°33' E 007°01'0 0.0
2016-Aug-23 00:04N 43°33' E 007°01'0 0.0
2016-Aug-22 23:31N 43°33' E 007°01'0 0.0
2016-Aug-22 22:31N 43°33' E 007°01'0 0.0
2016-Aug-22 21:31N 43°33' E 007°01'0 0.0
2016-Aug-22 20:07N 43°33' E 007°01'0 0.0
2016-Aug-22 19:07N 43°33' E 007°01'0 0.0
2016-Aug-22 18:25N 43°33' E 007°01'0 0.0
2016-Aug-22 17:25N 43°33' E 007°01'0 0.0
2016-Aug-22 00:10N 43°33' E 007°01'0 0.0
2016-Aug-21 18:31N 43°33' E 007°01'0 0.0
2016-Aug-21 12:33N 43°33' E 007°01'10 9.6
2016-Aug-21 11:33N 43°25' E 006°54'15 1.4
2016-Aug-21 01:22N 43°16' E 006°37'0 0.0
2016-Aug-21 00:28N 43°16' E 006°37'0 0.0
2016-Aug-20 23:10N 43°16' E 006°37'0 0.0
2016-Aug-20 22:25N 43°16' E 006°37'5 0.8
2016-Aug-20 16:33N 43°14' E 006°43'6 2.5
2016-Aug-20 14:15N 43°10' E 006°38'7 1.4
2016-Aug-20 09:14N 43°17' E 006°40'1 1.8
2016-Aug-20 08:27N 43°16' E 006°38'0 0.0
2016-Aug-20 07:24N 43°16' E 006°38'0 0.0
2016-Aug-20 06:33N 43°16' E 006°38'0 0.0
2016-Aug-20 05:33N 43°16' E 006°38'0 0.0
2016-Aug-20 04:33N 43°16' E 006°38'0 0.0
2016-Aug-20 03:33N 43°16' E 006°38'0 0.0
2016-Aug-19 19:33N 43°16' E 006°38'0 0.0
2016-Aug-19 18:03N 43°16' E 006°38'1 0.6
2016-Aug-19 15:34N 43°17' E 006°39'1111.2
2016-Aug-19 14:33N 43°10' E 006°51'15 0.6
2016-Aug-18 14:14N 43°24' E 006°56'6 9.3
2016-Aug-18 13:33N 43°30' E 006°57'0 0.1
2016-Aug-18 12:31N 43°30' E 006°57'0 0.0
2016-Aug-18 11:31N 43°30' E 006°57'0 0.0
2016-Aug-18 10:31N 43°30' E 006°57'4 0.9
2016-Aug-18 06:30N 43°33' E 007°01'0 0.0
2016-Aug-18 04:33N 43°33' E 007°01'0 0.0
2016-Aug-17 21:21N 43°33' E 007°01'0 0.0
2016-Aug-17 18:27N 43°33' E 007°01'0 0.0
2016-Aug-17 16:15N 43°33' E 007°01'0 0.4
2016-Aug-17 15:33N 43°33' E 007°01'23 1.3
2016-Aug-16 21:03N 43°16' E 006°38'0 0.0
2016-Aug-16 20:20N 43°16' E 006°38'0 0.0
2016-Aug-16 19:27N 43°16' E 006°38'0 0.0
2016-Aug-16 18:33N 43°16' E 006°38'0 0.0
2016-Aug-16 17:33N 43°16' E 006°38'0 0.0
2016-Aug-16 16:33N 43°16' E 006°38'5 5.4
2016-Aug-16 15:33N 43°16' E 006°45'1413.6
2016-Aug-16 14:33N 43°07' E 006°58'1010.0
2016-Aug-16 13:33N 43°11' E 006°46'4 3.2
2016-Aug-16 12:16N 43°12' E 006°41'0 0.0
2016-Aug-16 11:31N 43°12' E 006°41'0 0.0
2016-Aug-16 10:31N 43°12' E 006°41'3 3.6
2016-Aug-16 09:34N 43°15' E 006°43'  
Track history (hours):
 
Tides and Currents Weather Stations Pressure Air Temp Water Temp Dewpoint Dewpoint Depression Visibility Wind Speed Wind Dir Waves Ship Positions

Twizzle

Last reported at 2016-Aug-26 09:31 UTC. Time now 2016-Aug-26 10:18 UTC.
Position N 44°18' E 009°13'.

Length 58 m; draft 3.8 m.

Type: Sailing vessel. MMSI: 235079813.

Date/timePositionNaut miles runAvg speedWind from/ knotsBaromVisibWave heightAir tempDewpointWater temp
2016-Aug-26 09:31N 44°18' E 009°13'0 0.0
2016-Aug-26 08:19N 44°18' E 009°13'0 0.1
2016-Aug-26 07:31N 44°18' E 009°13'0 0.0
2016-Aug-26 06:31N 44°18' E 009°13'0 0.0
2016-Aug-26 04:25N 44°18' E 009°13'0 0.0
2016-Aug-26 03:31N 44°18' E 009°13'0 0.0
2016-Aug-26 02:19N 44°18' E 009°13'0 0.1
2016-Aug-26 01:31N 44°18' E 009°13'0 0.0
2016-Aug-26 00:31N 44°18' E 009°13'0 0.0
2016-Aug-25 23:31N 44°18' E 009°13'0 0.0
2016-Aug-25 22:31N 44°18' E 009°13'0 0.0
2016-Aug-25 21:31N 44°18' E 009°13'0 0.0
2016-Aug-25 20:31N 44°18' E 009°13'0 0.0
2016-Aug-25 19:28N 44°18' E 009°13'0 0.0
2016-Aug-25 18:31N 44°18' E 009°13'0 0.0
2016-Aug-25 17:31N 44°18' E 009°13'0 0.0
2016-Aug-25 16:31N 44°18' E 009°13'4 3.7
2016-Aug-25 15:34N 44°18' E 009°08'1111.0
2016-Aug-25 14:33N 44°21' E 008°53'5 5.2
2016-Aug-25 13:33N 44°25' E 008°50'0 0.2
2016-Aug-25 12:31N 44°25' E 008°50'0 0.0
2016-Aug-25 11:28N 44°25' E 008°50'0 0.0
2016-Aug-25 10:28N 44°25' E 008°50'0 0.0
2016-Aug-25 09:31N 44°25' E 008°50'0 0.0
2016-Aug-25 08:31N 44°25' E 008°50'0 0.0
2016-Aug-25 07:31N 44°25' E 008°50'0 0.0
2016-Aug-25 06:31N 44°25' E 008°50'0 0.0
2016-Aug-25 04:31N 44°25' E 008°50'0 0.0
2016-Aug-25 03:31N 44°25' E 008°50'0 0.0
2016-Aug-25 02:31N 44°25' E 008°50'0 0.0
2016-Aug-25 01:31N 44°25' E 008°50'0 0.0
2016-Aug-25 00:31N 44°25' E 008°50'0 0.0
2016-Aug-24 23:31N 44°25' E 008°50'0 0.0
2016-Aug-24 22:31N 44°25' E 008°50'0 0.0
2016-Aug-24 21:31N 44°25' E 008°50'0 0.0
2016-Aug-24 20:28N 44°25' E 008°50'0 0.0
2016-Aug-24 19:31N 44°25' E 008°50'0 0.0
2016-Aug-24 18:31N 44°25' E 008°50'0 0.0
2016-Aug-24 17:28N 44°25' E 008°50'0 0.0
2016-Aug-24 16:31N 44°25' E 008°50'0 0.0
2016-Aug-24 15:31N 44°25' E 008°50'0 0.0
2016-Aug-24 14:31N 44°25' E 008°50'0 0.0
2016-Aug-24 13:28N 44°25' E 008°50'0 0.0
2016-Aug-24 12:31N 44°25' E 008°50'0 0.0
2016-Aug-24 11:31N 44°25' E 008°50'0 0.0
2016-Aug-24 10:31N 44°25' E 008°50'0 0.0
2016-Aug-24 09:31N 44°25' E 008°50'0 0.1
2016-Aug-24 08:31N 44°25' E 008°50'0 0.0
2016-Aug-24 07:33N 44°25' E 008°50'3 2.8
2016-Aug-24 06:33N 44°23' E 008°47'14 7.0
2016-Aug-24 04:33N 44°12' E 008°35'8 7.5
2016-Aug-24 03:33N 44°07' E 008°28'8 7.5
2016-Aug-24 02:33N 44°01' E 008°20'8 8.4
2016-Aug-24 01:33N 43°55' E 008°13'8 7.9
2016-Aug-24 00:33N 43°50' E 008°05'8 7.9
2016-Aug-23 23:33N 43°47' E 007°55'8 7.7
2016-Aug-23 22:33N 43°43' E 007°45'8 7.7
2016-Aug-23 21:28N 43°40' E 007°35'7 8.2
2016-Aug-23 20:33N 43°37' E 007°25'8 8.0
2016-Aug-23 19:33N 43°33' E 007°15'8 8.1
2016-Aug-23 18:33N 43°30' E 007°05'4 3.8
2016-Aug-23 17:28N 43°33' E 007°01'0 0.0
2016-Aug-23 16:31N 43°33' E 007°01'0 0.0
2016-Aug-23 15:31N 43°33' E 007°01'0 0.0
2016-Aug-23 06:07N 43°33' E 007°01'0 0.0
2016-Aug-23 05:22N 43°33' E 007°01'0 0.0
2016-Aug-23 03:28N 43°33' E 007°01'0 0.0
2016-Aug-23 00:04N 43°33' E 007°01'0 0.0
2016-Aug-22 23:31N 43°33' E 007°01'0 0.0
2016-Aug-22 22:31N 43°33' E 007°01'0 0.0
2016-Aug-22 21:31N 43°33' E 007°01'0 0.0
2016-Aug-22 20:07N 43°33' E 007°01'0 0.0
2016-Aug-22 19:07N 43°33' E 007°01'0 0.0
2016-Aug-22 18:25N 43°33' E 007°01'0 0.0
2016-Aug-22 17:25N 43°33' E 007°01'0 0.0
2016-Aug-22 00:10N 43°33' E 007°01'0 0.0
2016-Aug-21 18:31N 43°33' E 007°01'0 0.0
2016-Aug-21 12:33N 43°33' E 007°01'10 9.6
2016-Aug-21 11:33N 43°25' E 006°54'15 1.4
2016-Aug-21 01:22N 43°16' E 006°37'0 0.0
2016-Aug-21 00:28N 43°16' E 006°37'0 0.0
2016-Aug-20 23:10N 43°16' E 006°37'0 0.0
2016-Aug-20 22:25N 43°16' E 006°37'5 0.8
2016-Aug-20 16:33N 43°14' E 006°43'6 2.5
2016-Aug-20 14:15N 43°10' E 006°38'7 1.4
2016-Aug-20 09:14N 43°17' E 006°40'1 1.8
2016-Aug-20 08:27N 43°16' E 006°38'0 0.0
2016-Aug-20 07:24N 43°16' E 006°38'0 0.0
2016-Aug-20 06:33N 43°16' E 006°38'0 0.0
2016-Aug-20 05:33N 43°16' E 006°38'0 0.0
2016-Aug-20 04:33N 43°16' E 006°38'0 0.0
2016-Aug-20 03:33N 43°16' E 006°38'0 0.0
2016-Aug-19 19:33N 43°16' E 006°38'0 0.0
2016-Aug-19 18:03N 43°16' E 006°38'1 0.6
2016-Aug-19 15:34N 43°17' E 006°39'1111.2
2016-Aug-19 14:33N 43°10' E 006°51'15 0.6
2016-Aug-18 14:14N 43°24' E 006°56'6 9.3
2016-Aug-18 13:33N 43°30' E 006°57'0 0.1
2016-Aug-18 12:31N 43°30' E 006°57'0 0.0
2016-Aug-18 11:31N 43°30' E 006°57'0 0.0
2016-Aug-18 10:31N 43°30' E 006°57'4 0.9
2016-Aug-18 06:30N 43°33' E 007°01'0 0.0
2016-Aug-18 04:33N 43°33' E 007°01'0 0.0
2016-Aug-17 21:21N 43°33' E 007°01'0 0.0
2016-Aug-17 18:27N 43°33' E 007°01'0 0.0
2016-Aug-17 16:15N 43°33' E 007°01'0 0.4
2016-Aug-17 15:33N 43°33' E 007°01'23 1.3
2016-Aug-16 21:03N 43°16' E 006°38'0 0.0
2016-Aug-16 20:20N 43°16' E 006°38'0 0.0
2016-Aug-16 19:27N 43°16' E 006°38'0 0.0
2016-Aug-16 18:33N 43°16' E 006°38'0 0.0
2016-Aug-16 17:33N 43°16' E 006°38'0 0.0
2016-Aug-16 16:33N 43°16' E 006°38'5 5.4
2016-Aug-16 15:33N 43°16' E 006°45'1413.6
2016-Aug-16 14:33N 43°07' E 006°58'1010.0
2016-Aug-16 13:33N 43°11' E 006°46'4 3.2
2016-Aug-16 12:16N 43°12' E 006°41'0 0.0
2016-Aug-16 11:31N 43°12' E 006°41'0 0.0
2016-Aug-16 10:31N 43°12' E 006°41'3 3.6
2016-Aug-16 09:34N 43°15' E 006°43'  

Dump ship's entire track history